sensor_id;sensor_type;location;lat;lon;timestamp;P1;durP1;ratioP1;P2;durP2;ratioP2
58366;SDS011;57745;42.524;12.052;2023-10-08T00:01:43;10.25;;;8.43;;
58366;SDS011;57745;42.524;12.052;2023-10-08T00:04:09;8.77;;;7.88;;
58366;SDS011;57745;42.524;12.052;2023-10-08T00:06:43;9.82;;;7.72;;
58366;SDS011;57745;42.524;12.052;2023-10-08T00:09:10;9.27;;;8.27;;
58366;SDS011;57745;42.524;12.052;2023-10-08T00:11:36;11.40;;;7.65;;
58366;SDS011;57745;42.524;12.052;2023-10-08T00:14:03;11.32;;;7.82;;
58366;SDS011;57745;42.524;12.052;2023-10-08T00:16:33;10.85;;;8.30;;
58366;SDS011;57745;42.524;12.052;2023-10-08T00:18:59;9.07;;;7.85;;
58366;SDS011;57745;42.524;12.052;2023-10-08T00:21:32;10.70;;;8.30;;
58366;SDS011;57745;42.524;12.052;2023-10-08T00:24:00;10.18;;;8.40;;
58366;SDS011;57745;42.524;12.052;2023-10-08T00:26:25;9.98;;;8.13;;
58366;SDS011;57745;42.524;12.052;2023-10-08T00:29:02;11.00;;;8.05;;
58366;SDS011;57745;42.524;12.052;2023-10-08T00:31:32;10.57;;;8.65;;
58366;SDS011;57745;42.524;12.052;2023-10-08T00:34:05;12.38;;;8.55;;
58366;SDS011;57745;42.524;12.052;2023-10-08T00:36:33;10.85;;;8.70;;
58366;SDS011;57745;42.524;12.052;2023-10-08T00:38:59;9.63;;;8.10;;
58366;SDS011;57745;42.524;12.052;2023-10-08T00:41:25;13.55;;;9.10;;
58366;SDS011;57745;42.524;12.052;2023-10-08T00:43:55;12.18;;;8.68;;
58366;SDS011;57745;42.524;12.052;2023-10-08T00:46:24;11.10;;;8.60;;
58366;SDS011;57745;42.524;12.052;2023-10-08T00:48:54;8.73;;;7.75;;
58366;SDS011;57745;42.524;12.052;2023-10-08T00:51:21;9.68;;;8.15;;
58366;SDS011;57745;42.524;12.052;2023-10-08T00:53:49;10.30;;;8.13;;
58366;SDS011;57745;42.524;12.052;2023-10-08T00:56:32;10.30;;;8.18;;
58366;SDS011;57745;42.524;12.052;2023-10-08T00:59:18;12.45;;;8.75;;
58366;SDS011;57745;42.524;12.052;2023-10-08T01:01:46;11.35;;;8.65;;
58366;SDS011;57745;42.524;12.052;2023-10-08T01:04:24;10.82;;;8.48;;
58366;SDS011;57745;42.524;12.052;2023-10-08T01:06:59;13.10;;;8.13;;
58366;SDS011;57745;42.524;12.052;2023-10-08T01:09:37;11.57;;;8.80;;
58366;SDS011;57745;42.524;12.052;2023-10-08T01:12:12;10.23;;;8.00;;
58366;SDS011;57745;42.524;12.052;2023-10-08T01:14:49;11.63;;;8.02;;
58366;SDS011;57745;42.524;12.052;2023-10-08T01:17:18;9.52;;;8.13;;
58366;SDS011;57745;42.524;12.052;2023-10-08T01:19:49;13.30;;;9.23;;
58366;SDS011;57745;42.524;12.052;2023-10-08T01:22:25;10.20;;;8.07;;
58366;SDS011;57745;42.524;12.052;2023-10-08T01:24:54;9.60;;;7.70;;
58366;SDS011;57745;42.524;12.052;2023-10-08T01:27:19;9.85;;;8.85;;
58366;SDS011;57745;42.524;12.052;2023-10-08T01:29:49;10.93;;;8.68;;
58366;SDS011;57745;42.524;12.052;2023-10-08T01:32:20;11.40;;;8.35;;
58366;SDS011;57745;42.524;12.052;2023-10-08T01:34:47;11.27;;;8.50;;
58366;SDS011;57745;42.524;12.052;2023-10-08T01:37:17;11.25;;;7.80;;
58366;SDS011;57745;42.524;12.052;2023-10-08T01:39:44;11.13;;;8.68;;
58366;SDS011;57745;42.524;12.052;2023-10-08T01:42:15;10.07;;;7.93;;
58366;SDS011;57745;42.524;12.052;2023-10-08T01:44:45;10.82;;;7.68;;
58366;SDS011;57745;42.524;12.052;2023-10-08T01:47:12;9.68;;;8.18;;
58366;SDS011;57745;42.524;12.052;2023-10-08T01:49:39;12.68;;;8.85;;
58366;SDS011;57745;42.524;12.052;2023-10-08T01:52:05;10.50;;;8.35;;
58366;SDS011;57745;42.524;12.052;2023-10-08T01:54:39;14.27;;;8.70;;
58366;SDS011;57745;42.524;12.052;2023-10-08T01:57:05;11.43;;;8.23;;
58366;SDS011;57745;42.524;12.052;2023-10-08T01:59:33;11.63;;;8.32;;
58366;SDS011;57745;42.524;12.052;2023-10-08T02:01:59;9.85;;;8.85;;
58366;SDS011;57745;42.524;12.052;2023-10-08T02:04:24;9.68;;;8.68;;
58366;SDS011;57745;42.524;12.052;2023-10-08T02:06:50;11.48;;;8.52;;
58366;SDS011;57745;42.524;12.052;2023-10-08T02:09:15;10.82;;;7.70;;
58366;SDS011;57745;42.524;12.052;2023-10-08T02:11:47;12.68;;;8.45;;
58366;SDS011;57745;42.524;12.052;2023-10-08T02:14:18;9.32;;;8.07;;
58366;SDS011;57745;42.524;12.052;2023-10-08T02:16:45;10.55;;;8.02;;
58366;SDS011;57745;42.524;12.052;2023-10-08T02:19:14;13.15;;;8.85;;
58366;SDS011;57745;42.524;12.052;2023-10-08T02:21:43;10.13;;;8.23;;
58366;SDS011;57745;42.524;12.052;2023-10-08T02:24:11;12.40;;;9.07;;
58366;SDS011;57745;42.524;12.052;2023-10-08T02:26:38;9.77;;;8.73;;
58366;SDS011;57745;42.524;12.052;2023-10-08T02:29:04;10.40;;;7.88;;
58366;SDS011;57745;42.524;12.052;2023-10-08T02:31:39;11.40;;;8.75;;
58366;SDS011;57745;42.524;12.052;2023-10-08T02:34:05;9.90;;;7.78;;
58366;SDS011;57745;42.524;12.052;2023-10-08T02:36:33;9.20;;;8.02;;
58366;SDS011;57745;42.524;12.052;2023-10-08T02:39:05;9.77;;;8.70;;
58366;SDS011;57745;42.524;12.052;2023-10-08T02:41:39;11.07;;;8.10;;
58366;SDS011;57745;42.524;12.052;2023-10-08T02:44:07;10.70;;;8.15;;
58366;SDS011;57745;42.524;12.052;2023-10-08T02:46:37;11.13;;;8.80;;
58366;SDS011;57745;42.524;12.052;2023-10-08T02:49:05;11.15;;;8.55;;
58366;SDS011;57745;42.524;12.052;2023-10-08T02:51:35;11.25;;;8.82;;
58366;SDS011;57745;42.524;12.052;2023-10-08T02:54:00;11.60;;;8.45;;
58366;SDS011;57745;42.524;12.052;2023-10-08T02:56:30;11.20;;;8.55;;
58366;SDS011;57745;42.524;12.052;2023-10-08T02:58:57;9.02;;;7.50;;
58366;SDS011;57745;42.524;12.052;2023-10-08T03:01:23;9.10;;;7.55;;
58366;SDS011;57745;42.524;12.052;2023-10-08T03:03:50;11.13;;;8.25;;
58366;SDS011;57745;42.524;12.052;2023-10-08T03:06:24;13.82;;;8.27;;
58366;SDS011;57745;42.524;12.052;2023-10-08T03:08:50;13.60;;;7.88;;
58366;SDS011;57745;42.524;12.052;2023-10-08T03:11:16;11.35;;;8.48;;
58366;SDS011;57745;42.524;12.052;2023-10-08T03:13:43;11.32;;;7.80;;
58366;SDS011;57745;42.524;12.052;2023-10-08T03:16:12;9.88;;;7.82;;
58366;SDS011;57745;42.524;12.052;2023-10-08T03:18:38;9.40;;;8.32;;
58366;SDS011;57745;42.524;12.052;2023-10-08T03:21:09;12.68;;;8.80;;
58366;SDS011;57745;42.524;12.052;2023-10-08T03:23:58;10.25;;;8.35;;
58366;SDS011;57745;42.524;12.052;2023-10-08T03:26:24;10.45;;;8.13;;
58366;SDS011;57745;42.524;12.052;2023-10-08T03:28:59;10.05;;;7.90;;
58366;SDS011;57745;42.524;12.052;2023-10-08T03:31:26;9.85;;;7.57;;
58366;SDS011;57745;42.524;12.052;2023-10-08T03:34:13;10.40;;;7.85;;
58366;SDS011;57745;42.524;12.052;2023-10-08T03:36:40;9.07;;;7.80;;
58366;SDS011;57745;42.524;12.052;2023-10-08T03:39:11;10.35;;;8.05;;
58366;SDS011;57745;42.524;12.052;2023-10-08T03:41:43;11.18;;;7.70;;
58366;SDS011;57745;42.524;12.052;2023-10-08T03:44:23;10.63;;;8.02;;
58366;SDS011;57745;42.524;12.052;2023-10-08T03:46:49;9.40;;;7.88;;
58366;SDS011;57745;42.524;12.052;2023-10-08T03:49:17;10.38;;;8.18;;
58366;SDS011;57745;42.524;12.052;2023-10-08T03:51:46;8.90;;;7.90;;
58366;SDS011;57745;42.524;12.052;2023-10-08T03:54:13;9.48;;;7.80;;
58366;SDS011;57745;42.524;12.052;2023-10-08T03:56:44;9.40;;;7.90;;
58366;SDS011;57745;42.524;12.052;2023-10-08T03:59:17;10.57;;;8.07;;
58366;SDS011;57745;42.524;12.052;2023-10-08T04:01:55;8.38;;;7.00;;
58366;SDS011;57745;42.524;12.052;2023-10-08T04:04:24;8.98;;;7.38;;
58366;SDS011;57745;42.524;12.052;2023-10-08T04:06:55;9.13;;;7.20;;
58366;SDS011;57745;42.524;12.052;2023-10-08T04:09:41;9.00;;;7.60;;
58366;SDS011;57745;42.524;12.052;2023-10-08T04:12:07;10.15;;;7.50;;
58366;SDS011;57745;42.524;12.052;2023-10-08T04:14:35;9.35;;;7.57;;
58366;SDS011;57745;42.524;12.052;2023-10-08T04:17:01;10.65;;;7.82;;
58366;SDS011;57745;42.524;12.052;2023-10-08T04:19:27;9.48;;;6.97;;
58366;SDS011;57745;42.524;12.052;2023-10-08T04:21:52;9.65;;;7.85;;
58366;SDS011;57745;42.524;12.052;2023-10-08T04:24:22;11.52;;;7.97;;
58366;SDS011;57745;42.524;12.052;2023-10-08T04:27:09;9.43;;;7.32;;
58366;SDS011;57745;42.524;12.052;2023-10-08T04:29:35;9.05;;;7.00;;
58366;SDS011;57745;42.524;12.052;2023-10-08T04:32:04;13.10;;;7.68;;
58366;SDS011;57745;42.524;12.052;2023-10-08T04:34:35;10.93;;;7.88;;
58366;SDS011;57745;42.524;12.052;2023-10-08T04:37:01;11.45;;;8.05;;
58366;SDS011;57745;42.524;12.052;2023-10-08T04:39:28;9.00;;;7.30;;
58366;SDS011;57745;42.524;12.052;2023-10-08T04:41:57;9.18;;;7.25;;
58366;SDS011;57745;42.524;12.052;2023-10-08T04:44:39;9.27;;;7.50;;
58366;SDS011;57745;42.524;12.052;2023-10-08T04:47:08;10.70;;;7.35;;
58366;SDS011;57745;42.524;12.052;2023-10-08T04:49:34;10.88;;;7.95;;
58366;SDS011;57745;42.524;12.052;2023-10-08T04:52:06;8.98;;;8.07;;
58366;SDS011;57745;42.524;12.052;2023-10-08T04:54:44;13.35;;;8.80;;
58366;SDS011;57745;42.524;12.052;2023-10-08T04:57:30;8.95;;;7.97;;
58366;SDS011;57745;42.524;12.052;2023-10-08T04:59:55;10.48;;;7.28;;
58366;SDS011;57745;42.524;12.052;2023-10-08T05:02:22;9.88;;;7.82;;
58366;SDS011;57745;42.524;12.052;2023-10-08T05:05:14;10.60;;;7.82;;
58366;SDS011;57745;42.524;12.052;2023-10-08T05:07:42;9.55;;;8.20;;
58366;SDS011;57745;42.524;12.052;2023-10-08T05:10:11;9.93;;;8.00;;
58366;SDS011;57745;42.524;12.052;2023-10-08T05:12:50;9.93;;;7.45;;
58366;SDS011;57745;42.524;12.052;2023-10-08T05:15:36;12.32;;;7.90;;
58366;SDS011;57745;42.524;12.052;2023-10-08T05:18:06;9.70;;;7.78;;
58366;SDS011;57745;42.524;12.052;2023-10-08T05:20:48;10.85;;;7.90;;
58366;SDS011;57745;42.524;12.052;2023-10-08T05:23:14;13.70;;;8.45;;
58366;SDS011;57745;42.524;12.052;2023-10-08T05:26:03;10.05;;;8.07;;
58366;SDS011;57745;42.524;12.052;2023-10-08T05:28:35;10.25;;;8.10;;
58366;SDS011;57745;42.524;12.052;2023-10-08T05:31:11;10.32;;;7.85;;
58366;SDS011;57745;42.524;12.052;2023-10-08T05:33:40;12.27;;;8.35;;
58366;SDS011;57745;42.524;12.052;2023-10-08T05:36:27;9.95;;;8.32;;
58366;SDS011;57745;42.524;12.052;2023-10-08T05:39:01;9.05;;;7.57;;
58366;SDS011;57745;42.524;12.052;2023-10-08T05:41:44;8.95;;;7.97;;
58366;SDS011;57745;42.524;12.052;2023-10-08T05:44:28;10.80;;;8.20;;
58366;SDS011;57745;42.524;12.052;2023-10-08T05:47:04;12.30;;;9.52;;
58366;SDS011;57745;42.524;12.052;2023-10-08T05:49:49;14.13;;;9.23;;
58366;SDS011;57745;42.524;12.052;2023-10-08T05:52:47;11.63;;;8.43;;
58366;SDS011;57745;42.524;12.052;2023-10-08T05:55:33;8.20;;;7.40;;
58366;SDS011;57745;42.524;12.052;2023-10-08T05:58:06;15.98;;;8.35;;
58366;SDS011;57745;42.524;12.052;2023-10-08T06:00:45;11.23;;;7.95;;
58366;SDS011;57745;42.524;12.052;2023-10-08T06:03:26;9.73;;;7.63;;
58366;SDS011;57745;42.524;12.052;2023-10-08T06:06:04;10.45;;;8.20;;
58366;SDS011;57745;42.524;12.052;2023-10-08T06:08:40;10.02;;;8.02;;
58366;SDS011;57745;42.524;12.052;2023-10-08T06:11:24;9.02;;;7.53;;
58366;SDS011;57745;42.524;12.052;2023-10-08T06:14:06;10.52;;;8.68;;
58366;SDS011;57745;42.524;12.052;2023-10-08T06:17:01;19.45;;;9.65;;
58366;SDS011;57745;42.524;12.052;2023-10-08T06:19:39;10.57;;;9.23;;
58366;SDS011;57745;42.524;12.052;2023-10-08T06:22:04;13.18;;;8.60;;
58366;SDS011;57745;42.524;12.052;2023-10-08T06:24:30;11.00;;;8.93;;
58366;SDS011;57745;42.524;12.052;2023-10-08T06:26:58;12.30;;;8.82;;
58366;SDS011;57745;42.524;12.052;2023-10-08T06:29:29;13.02;;;7.97;;
58366;SDS011;57745;42.524;12.052;2023-10-08T06:31:56;10.75;;;8.00;;
58366;SDS011;57745;42.524;12.052;2023-10-08T06:34:27;12.65;;;8.38;;
58366;SDS011;57745;42.524;12.052;2023-10-08T06:36:57;13.18;;;8.52;;
58366;SDS011;57745;42.524;12.052;2023-10-08T06:39:24;9.63;;;7.82;;
58366;SDS011;57745;42.524;12.052;2023-10-08T06:42:12;13.32;;;9.15;;
58366;SDS011;57745;42.524;12.052;2023-10-08T06:44:39;10.35;;;8.07;;
58366;SDS011;57745;42.524;12.052;2023-10-08T06:47:07;9.48;;;7.93;;
58366;SDS011;57745;42.524;12.052;2023-10-08T06:49:34;11.15;;;7.60;;
58366;SDS011;57745;42.524;12.052;2023-10-08T06:52:01;10.57;;;7.55;;
58366;SDS011;57745;42.524;12.052;2023-10-08T06:54:27;10.30;;;6.97;;
58366;SDS011;57745;42.524;12.052;2023-10-08T06:56:55;9.75;;;7.45;;
58366;SDS011;57745;42.524;12.052;2023-10-08T06:59:21;10.50;;;7.80;;
58366;SDS011;57745;42.524;12.052;2023-10-08T07:01:48;13.32;;;7.95;;
58366;SDS011;57745;42.524;12.052;2023-10-08T07:04:16;10.18;;;6.75;;
58366;SDS011;57745;42.524;12.052;2023-10-08T07:06:43;9.27;;;7.50;;
58366;SDS011;57745;42.524;12.052;2023-10-08T07:09:11;10.73;;;6.93;;
58366;SDS011;57745;42.524;12.052;2023-10-08T07:11:53;10.35;;;7.50;;
58366;SDS011;57745;42.524;12.052;2023-10-08T07:14:22;9.25;;;7.40;;
58366;SDS011;57745;42.524;12.052;2023-10-08T07:16:53;8.10;;;7.13;;
58366;SDS011;57745;42.524;12.052;2023-10-08T07:19:25;14.00;;;8.05;;
58366;SDS011;57745;42.524;12.052;2023-10-08T07:22:02;13.70;;;7.88;;
58366;SDS011;57745;42.524;12.052;2023-10-08T07:24:42;9.95;;;7.63;;
58366;SDS011;57745;42.524;12.052;2023-10-08T07:27:10;8.55;;;7.10;;
58366;SDS011;57745;42.524;12.052;2023-10-08T07:29:37;10.60;;;6.95;;
58366;SDS011;57745;42.524;12.052;2023-10-08T07:32:02;11.40;;;8.02;;
58366;SDS011;57745;42.524;12.052;2023-10-08T07:34:35;9.25;;;7.93;;
58366;SDS011;57745;42.524;12.052;2023-10-08T07:37:01;14.75;;;7.25;;
58366;SDS011;57745;42.524;12.052;2023-10-08T07:39:27;12.57;;;7.65;;
58366;SDS011;57745;42.524;12.052;2023-10-08T07:42:01;14.18;;;8.07;;
58366;SDS011;57745;42.524;12.052;2023-10-08T07:44:33;14.18;;;8.38;;
58366;SDS011;57745;42.524;12.052;2023-10-08T07:47:03;12.93;;;8.18;;
58366;SDS011;57745;42.524;12.052;2023-10-08T07:49:30;10.77;;;7.65;;
58366;SDS011;57745;42.524;12.052;2023-10-08T07:51:57;11.00;;;8.32;;
58366;SDS011;57745;42.524;12.052;2023-10-08T07:54:24;12.18;;;8.13;;
58366;SDS011;57745;42.524;12.052;2023-10-08T07:56:54;17.48;;;10.25;;
58366;SDS011;57745;42.524;12.052;2023-10-08T07:59:34;15.10;;;10.60;;
58366;SDS011;57745;42.524;12.052;2023-10-08T08:02:03;22.63;;;12.00;;
58366;SDS011;57745;42.524;12.052;2023-10-08T08:04:35;18.27;;;12.23;;
58366;SDS011;57745;42.524;12.052;2023-10-08T08:07:01;17.73;;;12.70;;
58366;SDS011;57745;42.524;12.052;2023-10-08T08:09:29;17.90;;;12.23;;
58366;SDS011;57745;42.524;12.052;2023-10-08T08:11:55;16.17;;;12.63;;
58366;SDS011;57745;42.524;12.052;2023-10-08T08:14:22;17.80;;;12.32;;
58366;SDS011;57745;42.524;12.052;2023-10-08T08:16:50;22.67;;;12.95;;
58366;SDS011;57745;42.524;12.052;2023-10-08T08:19:16;16.08;;;11.73;;
58366;SDS011;57745;42.524;12.052;2023-10-08T08:21:43;14.52;;;11.15;;
58366;SDS011;57745;42.524;12.052;2023-10-08T08:24:12;18.27;;;11.80;;
58366;SDS011;57745;42.524;12.052;2023-10-08T08:26:38;17.05;;;11.38;;
58366;SDS011;57745;42.524;12.052;2023-10-08T08:29:05;13.35;;;10.35;;
58366;SDS011;57745;42.524;12.052;2023-10-08T08:31:34;15.05;;;10.25;;
58366;SDS011;57745;42.524;12.052;2023-10-08T08:34:01;17.17;;;10.15;;
58366;SDS011;57745;42.524;12.052;2023-10-08T08:36:33;13.85;;;9.18;;
58366;SDS011;57745;42.524;12.052;2023-10-08T08:38:59;14.70;;;9.63;;
58366;SDS011;57745;42.524;12.052;2023-10-08T08:41:24;14.27;;;9.15;;
58366;SDS011;57745;42.524;12.052;2023-10-08T08:43:54;11.10;;;8.40;;
58366;SDS011;57745;42.524;12.052;2023-10-08T08:46:31;12.50;;;8.30;;
58366;SDS011;57745;42.524;12.052;2023-10-08T08:49:00;10.85;;;8.02;;
58366;SDS011;57745;42.524;12.052;2023-10-08T08:51:29;12.45;;;7.35;;
58366;SDS011;57745;42.524;12.052;2023-10-08T08:53:55;10.57;;;7.70;;
58366;SDS011;57745;42.524;12.052;2023-10-08T08:56:20;12.60;;;9.20;;
58366;SDS011;57745;42.524;12.052;2023-10-08T08:58:48;13.02;;;8.30;;
58366;SDS011;57745;42.524;12.052;2023-10-08T09:01:14;12.25;;;7.90;;
58366;SDS011;57745;42.524;12.052;2023-10-08T09:03:42;10.95;;;7.78;;
58366;SDS011;57745;42.524;12.052;2023-10-08T09:06:08;8.15;;;7.35;;
58366;SDS011;57745;42.524;12.052;2023-10-08T09:08:37;12.52;;;8.40;;
58366;SDS011;57745;42.524;12.052;2023-10-08T09:11:06;9.23;;;7.65;;
58366;SDS011;57745;42.524;12.052;2023-10-08T09:13:33;14.55;;;7.85;;
58366;SDS011;57745;42.524;12.052;2023-10-08T09:16:20;10.18;;;7.20;;
58366;SDS011;57745;42.524;12.052;2023-10-08T09:18:48;13.15;;;8.02;;
58366;SDS011;57745;42.524;12.052;2023-10-08T09:21:15;11.05;;;7.97;;
58366;SDS011;57745;42.524;12.052;2023-10-08T09:23:44;9.52;;;7.32;;
58366;SDS011;57745;42.524;12.052;2023-10-08T09:26:18;10.38;;;8.07;;
58366;SDS011;57745;42.524;12.052;2023-10-08T09:28:47;7.93;;;6.80;;
58366;SDS011;57745;42.524;12.052;2023-10-08T09:31:14;11.27;;;7.18;;
58366;SDS011;57745;42.524;12.052;2023-10-08T09:33:40;10.57;;;7.47;;
58366;SDS011;57745;42.524;12.052;2023-10-08T09:36:06;9.63;;;7.28;;
58366;SDS011;57745;42.524;12.052;2023-10-08T09:38:36;10.45;;;7.45;;
58366;SDS011;57745;42.524;12.052;2023-10-08T09:41:02;9.07;;;7.25;;
58366;SDS011;57745;42.524;12.052;2023-10-08T09:43:31;10.77;;;7.07;;
58366;SDS011;57745;42.524;12.052;2023-10-08T09:46:03;11.63;;;7.53;;
58366;SDS011;57745;42.524;12.052;2023-10-08T09:48:36;10.82;;;7.55;;
58366;SDS011;57745;42.524;12.052;2023-10-08T09:51:03;10.98;;;7.20;;
58366;SDS011;57745;42.524;12.052;2023-10-08T09:53:51;10.60;;;7.30;;
58366;SDS011;57745;42.524;12.052;2023-10-08T09:56:27;8.85;;;6.78;;
58366;SDS011;57745;42.524;12.052;2023-10-08T09:58:54;10.60;;;7.05;;
58366;SDS011;57745;42.524;12.052;2023-10-08T10:01:19;7.60;;;6.18;;
58366;SDS011;57745;42.524;12.052;2023-10-08T10:03:47;8.43;;;6.35;;
58366;SDS011;57745;42.524;12.052;2023-10-08T10:06:14;7.80;;;5.78;;
58366;SDS011;57745;42.524;12.052;2023-10-08T10:08:42;6.50;;;5.80;;
58366;SDS011;57745;42.524;12.052;2023-10-08T10:11:08;7.78;;;6.35;;
58366;SDS011;57745;42.524;12.052;2023-10-08T10:13:45;9.10;;;5.85;;
58366;SDS011;57745;42.524;12.052;2023-10-08T10:16:18;7.82;;;5.78;;
58366;SDS011;57745;42.524;12.052;2023-10-08T10:18:48;13.40;;;5.63;;
58366;SDS011;57745;42.524;12.052;2023-10-08T10:23:47;8.13;;;5.55;;
58366;SDS011;57745;42.524;12.052;2023-10-08T10:26:22;10.23;;;6.68;;
58366;SDS011;57745;42.524;12.052;2023-10-08T10:34:04;9.02;;;5.45;;
58366;SDS011;57745;42.524;12.052;2023-10-08T10:36:30;8.50;;;5.90;;
58366;SDS011;57745;42.524;12.052;2023-10-08T10:38:56;9.10;;;5.65;;
58366;SDS011;57745;42.524;12.052;2023-10-08T10:41:22;7.00;;;5.88;;
58366;SDS011;57745;42.524;12.052;2023-10-08T10:43:47;7.82;;;6.18;;
58366;SDS011;57745;42.524;12.052;2023-10-08T10:46:18;8.00;;;5.80;;
58366;SDS011;57745;42.524;12.052;2023-10-08T10:48:55;7.70;;;5.80;;
58366;SDS011;57745;42.524;12.052;2023-10-08T10:51:50;9.68;;;5.88;;
58366;SDS011;57745;42.524;12.052;2023-10-08T10:54:28;9.27;;;5.93;;
58366;SDS011;57745;42.524;12.052;2023-10-08T10:57:01;7.00;;;5.88;;
58366;SDS011;57745;42.524;12.052;2023-10-08T10:59:42;7.25;;;6.20;;
58366;SDS011;57745;42.524;12.052;2023-10-08T11:02:18;8.38;;;6.03;;
58366;SDS011;57745;42.524;12.052;2023-10-08T11:04:55;13.70;;;6.28;;
58366;SDS011;57745;42.524;12.052;2023-10-08T11:07:32;8.57;;;5.95;;
58366;SDS011;57745;42.524;12.052;2023-10-08T11:09:59;7.95;;;5.82;;
58366;SDS011;57745;42.524;12.052;2023-10-08T11:12:25;7.90;;;5.90;;
58366;SDS011;57745;42.524;12.052;2023-10-08T11:15:08;6.60;;;5.80;;
58366;SDS011;57745;42.524;12.052;2023-10-08T11:20:22;10.63;;;5.90;;
58366;SDS011;57745;42.524;12.052;2023-10-08T11:22:51;7.97;;;6.18;;
58366;SDS011;57745;42.524;12.052;2023-10-08T11:25:24;8.45;;;5.85;;
58366;SDS011;57745;42.524;12.052;2023-10-08T11:27:55;8.10;;;6.03;;
58366;SDS011;57745;42.524;12.052;2023-10-08T11:30:27;8.60;;;5.80;;
58366;SDS011;57745;42.524;12.052;2023-10-08T11:32:59;8.48;;;5.60;;
58366;SDS011;57745;42.524;12.052;2023-10-08T11:35:25;9.68;;;5.50;;
58366;SDS011;57745;42.524;12.052;2023-10-08T11:37:52;7.88;;;6.13;;
58366;SDS011;57745;42.524;12.052;2023-10-08T11:40:26;8.02;;;5.95;;
58366;SDS011;57745;42.524;12.052;2023-10-08T11:43:12;7.80;;;6.00;;
58366;SDS011;57745;42.524;12.052;2023-10-08T11:45:41;6.45;;;5.40;;
58366;SDS011;57745;42.524;12.052;2023-10-08T11:48:13;8.75;;;6.00;;
58366;SDS011;57745;42.524;12.052;2023-10-08T11:50:53;7.78;;;5.90;;
58366;SDS011;57745;42.524;12.052;2023-10-08T11:53:22;7.05;;;5.70;;
58366;SDS011;57745;42.524;12.052;2023-10-08T11:55:49;7.95;;;6.10;;
58366;SDS011;57745;42.524;12.052;2023-10-08T11:58:19;10.10;;;5.97;;
58366;SDS011;57745;42.524;12.052;2023-10-08T12:00:45;7.65;;;5.93;;
58366;SDS011;57745;42.524;12.052;2023-10-08T12:03:15;8.13;;;6.22;;
58366;SDS011;57745;42.524;12.052;2023-10-08T12:08:16;8.32;;;5.63;;
58366;SDS011;57745;42.524;12.052;2023-10-08T12:10:45;7.57;;;5.95;;
58366;SDS011;57745;42.524;12.052;2023-10-08T12:13:13;8.10;;;6.25;;
58366;SDS011;57745;42.524;12.052;2023-10-08T12:15:41;9.43;;;5.90;;
58366;SDS011;57745;42.524;12.052;2023-10-08T12:18:09;9.45;;;5.88;;
58366;SDS011;57745;42.524;12.052;2023-10-08T12:20:41;7.45;;;5.32;;
58366;SDS011;57745;42.524;12.052;2023-10-08T12:23:11;7.43;;;5.50;;
58366;SDS011;57745;42.524;12.052;2023-10-08T12:25:43;8.18;;;5.72;;
58366;SDS011;57745;42.524;12.052;2023-10-08T12:28:16;7.38;;;5.70;;
58366;SDS011;57745;42.524;12.052;2023-10-08T12:30:44;10.10;;;6.85;;
58366;SDS011;57745;42.524;12.052;2023-10-08T12:33:10;12.02;;;5.35;;
58366;SDS011;57745;42.524;12.052;2023-10-08T12:35:41;11.57;;;6.35;;
58366;SDS011;57745;42.524;12.052;2023-10-08T12:38:09;9.57;;;5.95;;
58366;SDS011;57745;42.524;12.052;2023-10-08T12:40:35;8.30;;;5.43;;
58366;SDS011;57745;42.524;12.052;2023-10-08T12:43:13;8.75;;;5.20;;
58366;SDS011;57745;42.524;12.052;2023-10-08T12:45:44;7.43;;;5.07;;
58366;SDS011;57745;42.524;12.052;2023-10-08T12:48:10;6.63;;;5.22;;
58366;SDS011;57745;42.524;12.052;2023-10-08T12:50:39;6.70;;;4.47;;
58366;SDS011;57745;42.524;12.052;2023-10-08T12:53:08;7.47;;;5.30;;
58366;SDS011;57745;42.524;12.052;2023-10-08T12:55:37;11.05;;;5.50;;
58366;SDS011;57745;42.524;12.052;2023-10-08T12:58:05;7.90;;;5.45;;
58366;SDS011;57745;42.524;12.052;2023-10-08T13:00:35;7.88;;;5.25;;
58366;SDS011;57745;42.524;12.052;2023-10-08T13:03:06;6.75;;;5.55;;
58366;SDS011;57745;42.524;12.052;2023-10-08T13:05:40;7.50;;;5.57;;
58366;SDS011;57745;42.524;12.052;2023-10-08T13:08:12;7.13;;;5.38;;
58366;SDS011;57745;42.524;12.052;2023-10-08T13:10:41;5.70;;;4.93;;
58366;SDS011;57745;42.524;12.052;2023-10-08T13:13:09;6.18;;;5.05;;
58366;SDS011;57745;42.524;12.052;2023-10-08T13:15:36;7.03;;;4.80;;
58366;SDS011;57745;42.524;12.052;2023-10-08T13:18:02;5.75;;;4.40;;
58366;SDS011;57745;42.524;12.052;2023-10-08T13:20:28;6.53;;;3.90;;
58366;SDS011;57745;42.524;12.052;2023-10-08T13:23:01;4.93;;;4.00;;
58366;SDS011;57745;42.524;12.052;2023-10-08T13:25:26;5.03;;;4.22;;
58366;SDS011;57745;42.524;12.052;2023-10-08T13:27:52;7.05;;;4.10;;
58366;SDS011;57745;42.524;12.052;2023-10-08T13:30:17;8.15;;;5.63;;
58366;SDS011;57745;42.524;12.052;2023-10-08T13:32:43;7.40;;;4.80;;
58366;SDS011;57745;42.524;12.052;2023-10-08T13:35:08;6.63;;;5.00;;
58366;SDS011;57745;42.524;12.052;2023-10-08T13:37:36;5.90;;;4.80;;
58366;SDS011;57745;42.524;12.052;2023-10-08T13:40:03;7.75;;;4.90;;
58366;SDS011;57745;42.524;12.052;2023-10-08T13:42:29;6.15;;;4.25;;
58366;SDS011;57745;42.524;12.052;2023-10-08T13:44:55;8.75;;;4.57;;
58366;SDS011;57745;42.524;12.052;2023-10-08T13:47:24;9.43;;;4.57;;
58366;SDS011;57745;42.524;12.052;2023-10-08T13:49:51;4.93;;;4.43;;
58366;SDS011;57745;42.524;12.052;2023-10-08T13:52:18;7.07;;;5.30;;
58366;SDS011;57745;42.524;12.052;2023-10-08T13:54:51;7.63;;;4.88;;
58366;SDS011;57745;42.524;12.052;2023-10-08T13:57:20;7.13;;;4.78;;
58366;SDS011;57745;42.524;12.052;2023-10-08T13:59:49;6.30;;;5.15;;
58366;SDS011;57745;42.524;12.052;2023-10-08T14:02:15;6.78;;;4.78;;
58366;SDS011;57745;42.524;12.052;2023-10-08T14:04:44;6.32;;;4.75;;
58366;SDS011;57745;42.524;12.052;2023-10-08T14:07:10;8.25;;;5.35;;
58366;SDS011;57745;42.524;12.052;2023-10-08T14:09:41;5.47;;;4.50;;
58366;SDS011;57745;42.524;12.052;2023-10-08T14:12:07;5.13;;;4.28;;
58366;SDS011;57745;42.524;12.052;2023-10-08T14:14:32;6.32;;;4.78;;
58366;SDS011;57745;42.524;12.052;2023-10-08T14:16:59;6.63;;;4.45;;
58366;SDS011;57745;42.524;12.052;2023-10-08T14:19:31;5.72;;;4.88;;
58366;SDS011;57745;42.524;12.052;2023-10-08T14:22:17;7.00;;;4.35;;
58366;SDS011;57745;42.524;12.052;2023-10-08T14:24:44;7.63;;;4.70;;
58366;SDS011;57745;42.524;12.052;2023-10-08T14:27:24;8.25;;;4.90;;
58366;SDS011;57745;42.524;12.052;2023-10-08T14:29:56;7.30;;;4.47;;
58366;SDS011;57745;42.524;12.052;2023-10-08T14:32:26;5.97;;;4.32;;
58366;SDS011;57745;42.524;12.052;2023-10-08T14:34:52;6.85;;;4.80;;
58366;SDS011;57745;42.524;12.052;2023-10-08T14:37:21;6.28;;;4.38;;
58366;SDS011;57745;42.524;12.052;2023-10-08T14:40:06;6.40;;;5.00;;
58366;SDS011;57745;42.524;12.052;2023-10-08T14:42:50;7.45;;;4.90;;
58366;SDS011;57745;42.524;12.052;2023-10-08T14:45:20;7.03;;;4.50;;
58366;SDS011;57745;42.524;12.052;2023-10-08T14:47:52;8.32;;;4.88;;
58366;SDS011;57745;42.524;12.052;2023-10-08T14:50:24;5.65;;;4.70;;
58366;SDS011;57745;42.524;12.052;2023-10-08T14:52:56;7.15;;;5.00;;
58366;SDS011;57745;42.524;12.052;2023-10-08T14:55:22;5.70;;;4.53;;
58366;SDS011;57745;42.524;12.052;2023-10-08T14:57:49;7.75;;;4.72;;
58366;SDS011;57745;42.524;12.052;2023-10-08T15:00:18;6.70;;;4.28;;
58366;SDS011;57745;42.524;12.052;2023-10-08T15:02:51;7.22;;;5.05;;